sensor_id;sensor_type;location;lat;lon;timestamp;temperature;humidity
4677;DHT22;2352;48.180;11.478;2022-07-23T00:01:31;28.40;58.80
4677;DHT22;2352;48.180;11.478;2022-07-23T00:04:35;28.30;58.60
4677;DHT22;2352;48.180;11.478;2022-07-23T00:07:39;28.30;58.90
4677;DHT22;2352;48.180;11.478;2022-07-23T00:10:42;28.20;59.60
4677;DHT22;2352;48.180;11.478;2022-07-23T00:13:45;28.10;58.80
4677;DHT22;2352;48.180;11.478;2022-07-23T00:16:48;28.00;59.60
4677;DHT22;2352;48.180;11.478;2022-07-23T00:19:51;28.00;59.80
4677;DHT22;2352;48.180;11.478;2022-07-23T00:22:56;27.90;59.20
4677;DHT22;2352;48.180;11.478;2022-07-23T00:25:59;27.80;59.70
4677;DHT22;2352;48.180;11.478;2022-07-23T00:29:02;27.80;59.90
4677;DHT22;2352;48.180;11.478;2022-07-23T00:32:05;27.70;59.30
4677;DHT22;2352;48.180;11.478;2022-07-23T00:35:08;27.60;59.50
4677;DHT22;2352;48.180;11.478;2022-07-23T00:38:12;27.60;59.70
4677;DHT22;2352;48.180;11.478;2022-07-23T00:41:15;27.50;59.50
4677;DHT22;2352;48.180;11.478;2022-07-23T00:44:20;27.50;59.70
4677;DHT22;2352;48.180;11.478;2022-07-23T00:47:23;27.30;60.30
4677;DHT22;2352;48.180;11.478;2022-07-23T00:50:26;27.20;60.60
4677;DHT22;2352;48.180;11.478;2022-07-23T00:53:30;27.10;61.00
4677;DHT22;2352;48.180;11.478;2022-07-23T00:56:34;26.90;61.10
4677;DHT22;2352;48.180;11.478;2022-07-23T00:59:38;26.90;62.00
4677;DHT22;2352;48.180;11.478;2022-07-23T01:02:41;27.00;61.80
4677;DHT22;2352;48.180;11.478;2022-07-23T01:05:44;27.10;61.90
4677;DHT22;2352;48.180;11.478;2022-07-23T01:08:48;27.00;62.50
4677;DHT22;2352;48.180;11.478;2022-07-23T01:11:51;26.60;63.70
4677;DHT22;2352;48.180;11.478;2022-07-23T01:14:57;26.70;64.00
4677;DHT22;2352;48.180;11.478;2022-07-23T01:18:01;26.70;62.60
4677;DHT22;2352;48.180;11.478;2022-07-23T01:21:05;26.70;62.00
4677;DHT22;2352;48.180;11.478;2022-07-23T01:24:10;26.70;60.30
4677;DHT22;2352;48.180;11.478;2022-07-23T01:27:13;26.70;63.30
4677;DHT22;2352;48.180;11.478;2022-07-23T01:30:16;26.40;65.60
4677;DHT22;2352;48.180;11.478;2022-07-23T01:33:19;25.80;68.20
4677;DHT22;2352;48.180;11.478;2022-07-23T01:36:22;25.70;70.80
4677;DHT22;2352;48.180;11.478;2022-07-23T01:43:49;25.50;70.90
4677;DHT22;2352;48.180;11.478;2022-07-23T01:46:52;25.20;77.00
4677;DHT22;2352;48.180;11.478;2022-07-23T01:49:55;25.20;78.10
4677;DHT22;2352;48.180;11.478;2022-07-23T01:52:57;25.20;77.00
4677;DHT22;2352;48.180;11.478;2022-07-23T01:56:01;25.20;76.70
4677;DHT22;2352;48.180;11.478;2022-07-23T01:59:06;25.10;77.30
4677;DHT22;2352;48.180;11.478;2022-07-23T02:02:08;25.20;78.30
4677;DHT22;2352;48.180;11.478;2022-07-23T02:05:11;25.10;78.40
4677;DHT22;2352;48.180;11.478;2022-07-23T02:08:14;25.10;78.50
4677;DHT22;2352;48.180;11.478;2022-07-23T02:11:17;25.10;77.60
4677;DHT22;2352;48.180;11.478;2022-07-23T02:14:21;25.00;78.60
4677;DHT22;2352;48.180;11.478;2022-07-23T02:17:25;25.00;78.20
4677;DHT22;2352;48.180;11.478;2022-07-23T02:20:28;25.00;79.30
4677;DHT22;2352;48.180;11.478;2022-07-23T02:23:30;24.90;78.70
4677;DHT22;2352;48.180;11.478;2022-07-23T02:26:33;24.90;78.30
4677;DHT22;2352;48.180;11.478;2022-07-23T02:29:37;24.80;79.70
4677;DHT22;2352;48.180;11.478;2022-07-23T02:32:40;24.90;82.00
4677;DHT22;2352;48.180;11.478;2022-07-23T02:35:43;25.00;82.20
4677;DHT22;2352;48.180;11.478;2022-07-23T02:38:46;25.00;81.70
4677;DHT22;2352;48.180;11.478;2022-07-23T02:41:49;24.90;80.50
4677;DHT22;2352;48.180;11.478;2022-07-23T02:44:53;24.90;82.20
4677;DHT22;2352;48.180;11.478;2022-07-23T02:47:56;24.90;82.30
4677;DHT22;2352;48.180;11.478;2022-07-23T02:50:58;24.80;81.50
4677;DHT22;2352;48.180;11.478;2022-07-23T02:54:01;24.70;83.10
4677;DHT22;2352;48.180;11.478;2022-07-23T02:57:04;24.70;83.20
4677;DHT22;2352;48.180;11.478;2022-07-23T03:00:10;24.70;82.10
4677;DHT22;2352;48.180;11.478;2022-07-23T03:03:13;24.70;82.30
4677;DHT22;2352;48.180;11.478;2022-07-23T03:06:15;24.70;82.80
4677;DHT22;2352;48.180;11.478;2022-07-23T03:09:18;24.40;83.50
4677;DHT22;2352;48.180;11.478;2022-07-23T03:12:21;24.20;85.00
4677;DHT22;2352;48.180;11.478;2022-07-23T03:15:25;24.30;86.70
4677;DHT22;2352;48.180;11.478;2022-07-23T03:18:28;24.30;84.20
4677;DHT22;2352;48.180;11.478;2022-07-23T03:21:31;24.40;85.60
4677;DHT22;2352;48.180;11.478;2022-07-23T03:24:34;24.40;84.40
4677;DHT22;2352;48.180;11.478;2022-07-23T03:27:54;24.40;83.80
4677;DHT22;2352;48.180;11.478;2022-07-23T03:30:58;24.50;83.50
4677;DHT22;2352;48.180;11.478;2022-07-23T03:34:01;24.50;84.20
4677;DHT22;2352;48.180;11.478;2022-07-23T03:37:04;24.40;83.40
4677;DHT22;2352;48.180;11.478;2022-07-23T03:40:08;24.40;84.10
4677;DHT22;2352;48.180;11.478;2022-07-23T03:43:11;24.20;83.60
4677;DHT22;2352;48.180;11.478;2022-07-23T03:46:15;24.20;86.10
4677;DHT22;2352;48.180;11.478;2022-07-23T03:49:18;24.10;85.80
4677;DHT22;2352;48.180;11.478;2022-07-23T03:52:21;24.20;86.10
4677;DHT22;2352;48.180;11.478;2022-07-23T03:55:24;24.10;86.70
4677;DHT22;2352;48.180;11.478;2022-07-23T03:58:27;24.00;89.00
4677;DHT22;2352;48.180;11.478;2022-07-23T04:01:31;24.20;86.30
4677;DHT22;2352;48.180;11.478;2022-07-23T04:04:34;24.20;86.80
4677;DHT22;2352;48.180;11.478;2022-07-23T04:07:37;24.10;86.70
4677;DHT22;2352;48.180;11.478;2022-07-23T04:10:39;24.10;87.10
4677;DHT22;2352;48.180;11.478;2022-07-23T04:13:42;24.00;87.40
4677;DHT22;2352;48.180;11.478;2022-07-23T04:16:46;24.00;87.50
4677;DHT22;2352;48.180;11.478;2022-07-23T04:19:49;24.10;85.80
4677;DHT22;2352;48.180;11.478;2022-07-23T04:22:52;24.10;87.40
4677;DHT22;2352;48.180;11.478;2022-07-23T04:25:56;24.00;88.50
4677;DHT22;2352;48.180;11.478;2022-07-23T04:28:58;23.80;89.00
4677;DHT22;2352;48.180;11.478;2022-07-23T04:32:04;23.90;87.70
4677;DHT22;2352;48.180;11.478;2022-07-23T04:35:08;23.90;89.20
4677;DHT22;2352;48.180;11.478;2022-07-23T04:38:10;23.90;89.20
4677;DHT22;2352;48.180;11.478;2022-07-23T04:41:13;23.90;89.20
4677;DHT22;2352;48.180;11.478;2022-07-23T04:44:16;23.90;90.10
4677;DHT22;2352;48.180;11.478;2022-07-23T04:47:20;23.90;90.00
4677;DHT22;2352;48.180;11.478;2022-07-23T04:50:25;23.90;89.90
4677;DHT22;2352;48.180;11.478;2022-07-23T04:53:28;23.80;89.50
4677;DHT22;2352;48.180;11.478;2022-07-23T04:56:31;23.80;90.10
4677;DHT22;2352;48.180;11.478;2022-07-23T04:59:34;23.80;90.40
4677;DHT22;2352;48.180;11.478;2022-07-23T05:02:38;23.80;90.10
4677;DHT22;2352;48.180;11.478;2022-07-23T05:05:41;23.70;90.50
4677;DHT22;2352;48.180;11.478;2022-07-23T05:08:44;23.80;90.80
4677;DHT22;2352;48.180;11.478;2022-07-23T05:11:46;23.80;90.50
4677;DHT22;2352;48.180;11.478;2022-07-23T05:14:49;23.80;90.20
4677;DHT22;2352;48.180;11.478;2022-07-23T05:17:55;23.80;90.60
4677;DHT22;2352;48.180;11.478;2022-07-23T05:20:58;23.70;90.50
4677;DHT22;2352;48.180;11.478;2022-07-23T05:24:01;23.80;90.20
4677;DHT22;2352;48.180;11.478;2022-07-23T05:27:04;23.80;90.80
4677;DHT22;2352;48.180;11.478;2022-07-23T05:30:07;23.80;90.60
4677;DHT22;2352;48.180;11.478;2022-07-23T05:33:12;23.80;90.50
4677;DHT22;2352;48.180;11.478;2022-07-23T05:36:14;23.70;90.00
4677;DHT22;2352;48.180;11.478;2022-07-23T05:39:17;23.70;91.00
4677;DHT22;2352;48.180;11.478;2022-07-23T05:42:20;23.70;91.10
4677;DHT22;2352;48.180;11.478;2022-07-23T05:45:23;23.70;91.00
4677;DHT22;2352;48.180;11.478;2022-07-23T05:48:27;23.60;90.90
4677;DHT22;2352;48.180;11.478;2022-07-23T05:51:30;23.60;91.50
4677;DHT22;2352;48.180;11.478;2022-07-23T05:54:34;23.50;91.30
4677;DHT22;2352;48.180;11.478;2022-07-23T05:57:38;23.40;91.50
4677;DHT22;2352;48.180;11.478;2022-07-23T06:00:41;23.40;91.30
4677;DHT22;2352;48.180;11.478;2022-07-23T06:03:45;23.40;91.70
4677;DHT22;2352;48.180;11.478;2022-07-23T06:06:48;23.50;91.20
4677;DHT22;2352;48.180;11.478;2022-07-23T06:09:51;23.60;91.30
4677;DHT22;2352;48.180;11.478;2022-07-23T06:12:54;23.60;91.50
4677;DHT22;2352;48.180;11.478;2022-07-23T06:16:03;23.60;91.90
4677;DHT22;2352;48.180;11.478;2022-07-23T06:19:07;23.60;91.50
4677;DHT22;2352;48.180;11.478;2022-07-23T06:22:10;23.60;91.10
4677;DHT22;2352;48.180;11.478;2022-07-23T06:25:13;23.50;91.20
4677;DHT22;2352;48.180;11.478;2022-07-23T06:28:20;23.50;91.10
4677;DHT22;2352;48.180;11.478;2022-07-23T06:31:23;23.50;91.40
4677;DHT22;2352;48.180;11.478;2022-07-23T06:34:27;23.50;92.00
4677;DHT22;2352;48.180;11.478;2022-07-23T06:37:30;23.50;91.80
4677;DHT22;2352;48.180;11.478;2022-07-23T06:40:33;23.60;91.60
4677;DHT22;2352;48.180;11.478;2022-07-23T06:43:36;23.60;91.90
4677;DHT22;2352;48.180;11.478;2022-07-23T06:46:38;23.50;91.00
4677;DHT22;2352;48.180;11.478;2022-07-23T06:49:43;23.50;90.80
4677;DHT22;2352;48.180;11.478;2022-07-23T06:52:46;23.40;91.00
4677;DHT22;2352;48.180;11.478;2022-07-23T06:55:48;23.40;91.90
4677;DHT22;2352;48.180;11.478;2022-07-23T06:58:51;23.30;91.20
4677;DHT22;2352;48.180;11.478;2022-07-23T07:01:54;23.30;92.10
4677;DHT22;2352;48.180;11.478;2022-07-23T07:05:01;23.30;91.50
4677;DHT22;2352;48.180;11.478;2022-07-23T07:08:07;23.30;91.40
4677;DHT22;2352;48.180;11.478;2022-07-23T07:11:10;23.30;92.20
4677;DHT22;2352;48.180;11.478;2022-07-23T07:14:13;23.20;90.70
4677;DHT22;2352;48.180;11.478;2022-07-23T07:17:16;23.30;92.20
4677;DHT22;2352;48.180;11.478;2022-07-23T07:20:20;23.20;90.90
4677;DHT22;2352;48.180;11.478;2022-07-23T07:23:23;23.20;91.00
4677;DHT22;2352;48.180;11.478;2022-07-23T07:26:26;23.30;91.70
4677;DHT22;2352;48.180;11.478;2022-07-23T07:29:29;23.30;92.60
4677;DHT22;2352;48.180;11.478;2022-07-23T07:32:32;23.40;92.60
4677;DHT22;2352;48.180;11.478;2022-07-23T07:35:56;23.40;92.20
4677;DHT22;2352;48.180;11.478;2022-07-23T07:39:00;23.40;91.50
4677;DHT22;2352;48.180;11.478;2022-07-23T07:42:03;23.30;91.60
4677;DHT22;2352;48.180;11.478;2022-07-23T07:45:07;23.00;92.20
4677;DHT22;2352;48.180;11.478;2022-07-23T07:48:12;23.00;92.20
4677;DHT22;2352;48.180;11.478;2022-07-23T07:51:16;22.90;92.20
4677;DHT22;2352;48.180;11.478;2022-07-23T07:54:21;22.90;92.50
4677;DHT22;2352;48.180;11.478;2022-07-23T07:57:24;23.00;92.50
4677;DHT22;2352;48.180;11.478;2022-07-23T08:00:27;23.10;92.50
4677;DHT22;2352;48.180;11.478;2022-07-23T08:03:30;23.00;92.60
4677;DHT22;2352;48.180;11.478;2022-07-23T08:06:34;23.00;92.40
4677;DHT22;2352;48.180;11.478;2022-07-23T08:09:38;22.90;92.80
4677;DHT22;2352;48.180;11.478;2022-07-23T08:12:42;23.00;93.00
4677;DHT22;2352;48.180;11.478;2022-07-23T08:15:46;22.90;93.20
4677;DHT22;2352;48.180;11.478;2022-07-23T08:18:49;23.00;92.90
4677;DHT22;2352;48.180;11.478;2022-07-23T08:21:53;23.10;93.50
4677;DHT22;2352;48.180;11.478;2022-07-23T08:24:56;23.10;93.10
4677;DHT22;2352;48.180;11.478;2022-07-23T08:28:01;23.20;93.70
4677;DHT22;2352;48.180;11.478;2022-07-23T08:31:04;23.20;93.20
4677;DHT22;2352;48.180;11.478;2022-07-23T08:34:08;23.30;93.10
4677;DHT22;2352;48.180;11.478;2022-07-23T08:37:12;23.30;92.60
4677;DHT22;2352;48.180;11.478;2022-07-23T08:40:15;23.50;92.80
4677;DHT22;2352;48.180;11.478;2022-07-23T08:43:19;23.60;92.50
4677;DHT22;2352;48.180;11.478;2022-07-23T08:46:22;23.60;91.90
4677;DHT22;2352;48.180;11.478;2022-07-23T08:49:26;23.80;93.10
4677;DHT22;2352;48.180;11.478;2022-07-23T08:52:32;23.80;92.30
4677;DHT22;2352;48.180;11.478;2022-07-23T08:55:36;23.90;93.30
4677;DHT22;2352;48.180;11.478;2022-07-23T08:58:39;24.00;92.80
4677;DHT22;2352;48.180;11.478;2022-07-23T09:01:42;24.10;92.70
4677;DHT22;2352;48.180;11.478;2022-07-23T09:04:45;24.20;92.60
4677;DHT22;2352;48.180;11.478;2022-07-23T09:08:06;24.10;91.40
4677;DHT22;2352;48.180;11.478;2022-07-23T09:11:11;24.20;92.00
4677;DHT22;2352;48.180;11.478;2022-07-23T09:14:14;24.20;91.60
4677;DHT22;2352;48.180;11.478;2022-07-23T09:17:17;24.30;91.50
4677;DHT22;2352;48.180;11.478;2022-07-23T09:20:20;24.30;90.70
4677;DHT22;2352;48.180;11.478;2022-07-23T09:23:37;24.40;91.30
4677;DHT22;2352;48.180;11.478;2022-07-23T09:26:41;24.50;91.10
4677;DHT22;2352;48.180;11.478;2022-07-23T09:29:55;24.50;89.60
4677;DHT22;2352;48.180;11.478;2022-07-23T09:33:09;24.50;88.80
4677;DHT22;2352;48.180;11.478;2022-07-23T09:36:12;24.60;90.60
4677;DHT22;2352;48.180;11.478;2022-07-23T09:39:26;24.80;88.40
4677;DHT22;2352;48.180;11.478;2022-07-23T09:42:29;24.90;90.80
4677;DHT22;2352;48.180;11.478;2022-07-23T09:45:32;25.20;90.40
4677;DHT22;2352;48.180;11.478;2022-07-23T09:48:36;25.40;90.40
4677;DHT22;2352;48.180;11.478;2022-07-23T09:51:51;25.40;89.10
4677;DHT22;2352;48.180;11.478;2022-07-23T09:55:00;25.70;87.90
4677;DHT22;2352;48.180;11.478;2022-07-23T09:58:04;25.70;87.30
4677;DHT22;2352;48.180;11.478;2022-07-23T10:01:08;25.70;82.90
4677;DHT22;2352;48.180;11.478;2022-07-23T10:04:11;25.80;81.70
4677;DHT22;2352;48.180;11.478;2022-07-23T10:07:17;26.00;81.00
4677;DHT22;2352;48.180;11.478;2022-07-23T10:10:26;26.10;79.80
4677;DHT22;2352;48.180;11.478;2022-07-23T10:13:30;26.00;74.90
4677;DHT22;2352;48.180;11.478;2022-07-23T10:16:50;25.60;75.10
4677;DHT22;2352;48.180;11.478;2022-07-23T10:19:53;25.70;78.10
4677;DHT22;2352;48.180;11.478;2022-07-23T10:23:02;26.10;77.50
4677;DHT22;2352;48.180;11.478;2022-07-23T10:26:12;26.50;75.90
4677;DHT22;2352;48.180;11.478;2022-07-23T10:29:34;26.80;73.30
4677;DHT22;2352;48.180;11.478;2022-07-23T10:32:45;27.00;69.90
4677;DHT22;2352;48.180;11.478;2022-07-23T10:35:56;27.20;70.20
4677;DHT22;2352;48.180;11.478;2022-07-23T10:39:05;27.40;69.60
4677;DHT22;2352;48.180;11.478;2022-07-23T10:42:12;27.70;72.30
4677;DHT22;2352;48.180;11.478;2022-07-23T10:45:30;27.90;70.30
4677;DHT22;2352;48.180;11.478;2022-07-23T10:48:33;27.90;65.30
4677;DHT22;2352;48.180;11.478;2022-07-23T10:51:38;27.80;67.50
4677;DHT22;2352;48.180;11.478;2022-07-23T10:54:41;27.60;64.20
4677;DHT22;2352;48.180;11.478;2022-07-23T10:57:49;27.10;64.70
4677;DHT22;2352;48.180;11.478;2022-07-23T11:00:53;27.20;67.10
4677;DHT22;2352;48.180;11.478;2022-07-23T11:03:56;27.10;65.40
4677;DHT22;2352;48.180;11.478;2022-07-23T11:07:07;27.10;65.10
4677;DHT22;2352;48.180;11.478;2022-07-23T11:10:32;27.00;63.80
4677;DHT22;2352;48.180;11.478;2022-07-23T11:16:54;26.90;65.90
4677;DHT22;2352;48.180;11.478;2022-07-23T11:20:16;26.70;65.40
4677;DHT22;2352;48.180;11.478;2022-07-23T11:23:19;26.70;65.30
4677;DHT22;2352;48.180;11.478;2022-07-23T11:26:47;26.60;66.60
4677;DHT22;2352;48.180;11.478;2022-07-23T11:29:52;26.70;66.50
4677;DHT22;2352;48.180;11.478;2022-07-23T11:33:16;26.80;68.60
4677;DHT22;2352;48.180;11.478;2022-07-23T11:36:20;26.90;67.70
4677;DHT22;2352;48.180;11.478;2022-07-23T11:39:25;26.80;66.90
4677;DHT22;2352;48.180;11.478;2022-07-23T11:42:28;26.70;68.10
4677;DHT22;2352;48.180;11.478;2022-07-23T11:45:35;26.60;67.20
4677;DHT22;2352;48.180;11.478;2022-07-23T11:48:38;26.50;68.20
4677;DHT22;2352;48.180;11.478;2022-07-23T11:51:42;26.50;69.10
4677;DHT22;2352;48.180;11.478;2022-07-23T11:54:47;26.50;69.50
4677;DHT22;2352;48.180;11.478;2022-07-23T11:57:52;26.50;68.50
4677;DHT22;2352;48.180;11.478;2022-07-23T12:00:56;26.40;70.10
4677;DHT22;2352;48.180;11.478;2022-07-23T12:03:59;26.40;72.50
4677;DHT22;2352;48.180;11.478;2022-07-23T12:07:03;26.40;71.10
4677;DHT22;2352;48.180;11.478;2022-07-23T12:10:11;26.60;71.50
4677;DHT22;2352;48.180;11.478;2022-07-23T12:13:17;26.60;70.80
4677;DHT22;2352;48.180;11.478;2022-07-23T12:16:23;26.60;70.40
4677;DHT22;2352;48.180;11.478;2022-07-23T12:19:26;26.50;69.30
4677;DHT22;2352;48.180;11.478;2022-07-23T12:22:34;26.60;67.90
4677;DHT22;2352;48.180;11.478;2022-07-23T12:25:39;26.50;68.40
4677;DHT22;2352;48.180;11.478;2022-07-23T12:28:51;26.40;68.40
4677;DHT22;2352;48.180;11.478;2022-07-23T12:31:56;26.10;68.80
4677;DHT22;2352;48.180;11.478;2022-07-23T12:35:04;26.00;69.00
4677;DHT22;2352;48.180;11.478;2022-07-23T12:38:09;25.90;69.60
4677;DHT22;2352;48.180;11.478;2022-07-23T12:41:12;25.80;69.90
4677;DHT22;2352;48.180;11.478;2022-07-23T12:44:15;25.80;69.90
4677;DHT22;2352;48.180;11.478;2022-07-23T12:47:20;25.90;72.50
4677;DHT22;2352;48.180;11.478;2022-07-23T12:50:37;26.00;71.00
4677;DHT22;2352;48.180;11.478;2022-07-23T12:53:42;26.20;70.50
4677;DHT22;2352;48.180;11.478;2022-07-23T12:56:45;26.30;70.90
4677;DHT22;2352;48.180;11.478;2022-07-23T12:59:49;26.30;70.70
4677;DHT22;2352;48.180;11.478;2022-07-23T13:02:53;26.00;70.60
4677;DHT22;2352;48.180;11.478;2022-07-23T13:05:57;26.00;70.40
4677;DHT22;2352;48.180;11.478;2022-07-23T13:09:02;26.00;71.30
4677;DHT22;2352;48.180;11.478;2022-07-23T13:12:06;25.90;71.70
4677;DHT22;2352;48.180;11.478;2022-07-23T13:15:12;26.00;71.80
4677;DHT22;2352;48.180;11.478;2022-07-23T13:18:16;26.00;72.30
4677;DHT22;2352;48.180;11.478;2022-07-23T13:21:21;26.20;72.80
4677;DHT22;2352;48.180;11.478;2022-07-23T13:24:24;26.10;71.90
4677;DHT22;2352;48.180;11.478;2022-07-23T13:27:27;25.90;74.40
4677;DHT22;2352;48.180;11.478;2022-07-23T13:30:30;26.00;73.00
4677;DHT22;2352;48.180;11.478;2022-07-23T13:33:35;26.10;73.20
4677;DHT22;2352;48.180;11.478;2022-07-23T13:36:38;25.90;74.40
4677;DHT22;2352;48.180;11.478;2022-07-23T13:39:41;25.80;74.00
4677;DHT22;2352;48.180;11.478;2022-07-23T13:42:47;25.90;73.50
4677;DHT22;2352;48.180;11.478;2022-07-23T13:45:51;25.90;73.40
4677;DHT22;2352;48.180;11.478;2022-07-23T13:48:56;26.10;75.20
4677;DHT22;2352;48.180;11.478;2022-07-23T13:52:00;26.10;73.00
4677;DHT22;2352;48.180;11.478;2022-07-23T13:55:07;26.20;74.00
4677;DHT22;2352;48.180;11.478;2022-07-23T13:58:10;26.10;73.20
4677;DHT22;2352;48.180;11.478;2022-07-23T14:01:13;26.20;73.50
4677;DHT22;2352;48.180;11.478;2022-07-23T14:04:20;26.10;73.50
4677;DHT22;2352;48.180;11.478;2022-07-23T14:07:23;26.20;73.60
4677;DHT22;2352;48.180;11.478;2022-07-23T14:10:26;26.30;74.50
4677;DHT22;2352;48.180;11.478;2022-07-23T14:13:29;26.30;72.60
4677;DHT22;2352;48.180;11.478;2022-07-23T14:16:33;26.40;72.50
4677;DHT22;2352;48.180;11.478;2022-07-23T14:19:38;26.40;73.40
4677;DHT22;2352;48.180;11.478;2022-07-23T14:22:41;26.40;72.00
4677;DHT22;2352;48.180;11.478;2022-07-23T14:25:44;26.40;74.10
4677;DHT22;2352;48.180;11.478;2022-07-23T14:28:48;26.30;72.20
4677;DHT22;2352;48.180;11.478;2022-07-23T14:31:51;26.20;72.50
4677;DHT22;2352;48.180;11.478;2022-07-23T14:34:56;26.30;73.00
4677;DHT22;2352;48.180;11.478;2022-07-23T14:37:59;26.40;72.20
4677;DHT22;2352;48.180;11.478;2022-07-23T14:41:03;26.50;72.30
4677;DHT22;2352;48.180;11.478;2022-07-23T14:44:08;26.40;71.90
4677;DHT22;2352;48.180;11.478;2022-07-23T14:47:11;26.30;74.10
4677;DHT22;2352;48.180;11.478;2022-07-23T14:50:23;26.50;72.40
4677;DHT22;2352;48.180;11.478;2022-07-23T14:53:28;26.60;70.60
4677;DHT22;2352;48.180;11.478;2022-07-23T14:56:31;26.50;70.60
4677;DHT22;2352;48.180;11.478;2022-07-23T14:59:35;26.60;71.00
4677;DHT22;2352;48.180;11.478;2022-07-23T15:02:39;26.60;70.80
4677;DHT22;2352;48.180;11.478;2022-07-23T15:05:44;26.70;72.80
4677;DHT22;2352;48.180;11.478;2022-07-23T15:08:46;26.80;71.50
4677;DHT22;2352;48.180;11.478;2022-07-23T15:11:49;26.90;70.80
4677;DHT22;2352;48.180;11.478;2022-07-23T15:14:53;26.90;69.80
4677;DHT22;2352;48.180;11.478;2022-07-23T15:17:56;26.70;70.00
4677;DHT22;2352;48.180;11.478;2022-07-23T15:21:01;26.60;69.90
4677;DHT22;2352;48.180;11.478;2022-07-23T15:24:05;26.50;70.70
4677;DHT22;2352;48.180;11.478;2022-07-23T15:27:08;26.60;71.10
4677;DHT22;2352;48.180;11.478;2022-07-23T15:30:11;26.80;71.50
4677;DHT22;2352;48.180;11.478;2022-07-23T15:33:14;26.90;70.80
4677;DHT22;2352;48.180;11.478;2022-07-23T15:36:23;26.70;70.70
4677;DHT22;2352;48.180;11.478;2022-07-23T15:39:26;26.70;70.10
4677;DHT22;2352;48.180;11.478;2022-07-23T15:42:30;26.60;70.50
4677;DHT22;2352;48.180;11.478;2022-07-23T15:45:33;26.80;70.70
4677;DHT22;2352;48.180;11.478;2022-07-23T15:48:37;26.70;72.80
4677;DHT22;2352;48.180;11.478;2022-07-23T15:51:41;26.90;71.30
4677;DHT22;2352;48.180;11.478;2022-07-23T15:54:48;26.80;70.40
4677;DHT22;2352;48.180;11.478;2022-07-23T15:57:52;26.80;71.00
4677;DHT22;2352;48.180;11.478;2022-07-23T16:00:56;27.00;71.50
4677;DHT22;2352;48.180;11.478;2022-07-23T16:03:59;27.00;71.10
4677;DHT22;2352;48.180;11.478;2022-07-23T16:07:04;27.10;71.30
4677;DHT22;2352;48.180;11.478;2022-07-23T16:10:11;26.90;71.40
4677;DHT22;2352;48.180;11.478;2022-07-23T16:13:15;26.80;71.20
4677;DHT22;2352;48.180;11.478;2022-07-23T16:16:17;26.80;73.10
4677;DHT22;2352;48.180;11.478;2022-07-23T16:19:21;27.00;73.30
4677;DHT22;2352;48.180;11.478;2022-07-23T16:22:26;27.00;72.30
4677;DHT22;2352;48.180;11.478;2022-07-23T16:25:29;26.90;71.70
4677;DHT22;2352;48.180;11.478;2022-07-23T16:28:32;26.60;72.40
4677;DHT22;2352;48.180;11.478;2022-07-23T16:31:35;26.50;73.20
4677;DHT22;2352;48.180;11.478;2022-07-23T16:34:38;26.60;73.20
4677;DHT22;2352;48.180;11.478;2022-07-23T16:37:42;26.60;73.30
4677;DHT22;2352;48.180;11.478;2022-07-23T16:40:45;26.50;73.10
4677;DHT22;2352;48.180;11.478;2022-07-23T16:43:48;26.60;73.40
4677;DHT22;2352;48.180;11.478;2022-07-23T16:46:52;26.70;73.10
4677;DHT22;2352;48.180;11.478;2022-07-23T16:49:55;26.80;72.70
4677;DHT22;2352;48.180;11.478;2022-07-23T16:52:59;26.90;73.40
4677;DHT22;2352;48.180;11.478;2022-07-23T16:56:03;26.80;73.20
4677;DHT22;2352;48.180;11.478;2022-07-23T16:59:06;26.70;73.50
4677;DHT22;2352;48.180;11.478;2022-07-23T17:02:09;26.70;73.70
4677;DHT22;2352;48.180;11.478;2022-07-23T17:05:12;26.90;74.20
4677;DHT22;2352;48.180;11.478;2022-07-23T17:08:17;27.00;74.30
4677;DHT22;2352;48.180;11.478;2022-07-23T17:11:20;27.00;75.00
4677;DHT22;2352;48.180;11.478;2022-07-23T17:14:23;26.80;74.00
4677;DHT22;2352;48.180;11.478;2022-07-23T17:17:26;26.80;74.30
4677;DHT22;2352;48.180;11.478;2022-07-23T17:20:29;26.80;74.20
4677;DHT22;2352;48.180;11.478;2022-07-23T17:23:34;26.80;76.10
4677;DHT22;2352;48.180;11.478;2022-07-23T17:26:38;26.80;74.80
4677;DHT22;2352;48.180;11.478;2022-07-23T17:29:45;26.90;75.60
4677;DHT22;2352;48.180;11.478;2022-07-23T17:32:49;27.00;75.10
4677;DHT22;2352;48.180;11.478;2022-07-23T17:35:52;27.00;74.40
4677;DHT22;2352;48.180;11.478;2022-07-23T17:38:58;27.00;73.90
4677;DHT22;2352;48.180;11.478;2022-07-23T17:42:07;27.00;74.50
4677;DHT22;2352;48.180;11.478;2022-07-23T17:45:10;27.10;74.50
4677;DHT22;2352;48.180;11.478;2022-07-23T17:48:17;27.10;74.50
4677;DHT22;2352;48.180;11.478;2022-07-23T17:51:20;27.10;74.60
4677;DHT22;2352;48.180;11.478;2022-07-23T17:54:24;27.10;75.20
4677;DHT22;2352;48.180;11.478;2022-07-23T17:57:27;27.10;75.30
4677;DHT22;2352;48.180;11.478;2022-07-23T18:00:34;27.10;74.50
4677;DHT22;2352;48.180;11.478;2022-07-23T18:03:38;27.10;74.50
4677;DHT22;2352;48.180;11.478;2022-07-23T18:06:41;27.00;74.10
4677;DHT22;2352;48.180;11.478;2022-07-23T18:09:46;27.00;74.10
4677;DHT22;2352;48.180;11.478;2022-07-23T18:12:49;27.00;76.30
4677;DHT22;2352;48.180;11.478;2022-07-23T18:15:52;27.00;76.30
4677;DHT22;2352;48.180;11.478;2022-07-23T18:18:55;27.00;76.40
4677;DHT22;2352;48.180;11.478;2022-07-23T18:21:58;27.00;75.70
4677;DHT22;2352;48.180;11.478;2022-07-23T18:25:04;26.80;75.10
4677;DHT22;2352;48.180;11.478;2022-07-23T18:28:07;26.80;76.20
4677;DHT22;2352;48.180;11.478;2022-07-23T18:31:11;26.90;75.40
4677;DHT22;2352;48.180;11.478;2022-07-23T18:34:16;26.90;76.70
4677;DHT22;2352;48.180;11.478;2022-07-23T18:37:25;26.90;76.30
4677;DHT22;2352;48.180;11.478;2022-07-23T18:40:39;26.90;75.70
4677;DHT22;2352;48.180;11.478;2022-07-23T18:43:42;26.90;77.10
4677;DHT22;2352;48.180;11.478;2022-07-23T18:46:45;26.90;77.10
4677;DHT22;2352;48.180;11.478;2022-07-23T18:49:48;26.90;77.70
4677;DHT22;2352;48.180;11.478;2022-07-23T18:52:53;26.90;76.30
4677;DHT22;2352;48.180;11.478;2022-07-23T18:55:57;26.80;76.90
4677;DHT22;2352;48.180;11.478;2022-07-23T18:59:01;26.80;77.30
4677;DHT22;2352;48.180;11.478;2022-07-23T19:02:05;26.90;77.60
4677;DHT22;2352;48.180;11.478;2022-07-23T19:05:08;26.80;76.90
4677;DHT22;2352;48.180;11.478;2022-07-23T19:08:11;26.80;77.00
4677;DHT22;2352;48.180;11.478;2022-07-23T19:11:16;26.70;76.80
4677;DHT22;2352;48.180;11.478;2022-07-23T19:14:19;26.60;77.70
4677;DHT22;2352;48.180;11.478;2022-07-23T19:17:21;26.60;78.20
4677;DHT22;2352;48.180;11.478;2022-07-23T19:20:24;26.60;76.80
4677;DHT22;2352;48.180;11.478;2022-07-23T19:23:27;26.50;77.40
4677;DHT22;2352;48.180;11.478;2022-07-23T19:26:32;26.40;76.20
4677;DHT22;2352;48.180;11.478;2022-07-23T19:29:35;26.40;76.30
4677;DHT22;2352;48.180;11.478;2022-07-23T19:32:38;26.40;75.00
4677;DHT22;2352;48.180;11.478;2022-07-23T19:35:41;26.30;75.00
4677;DHT22;2352;48.180;11.478;2022-07-23T19:38:44;26.30;75.40
4677;DHT22;2352;48.180;11.478;2022-07-23T19:41:48;26.30;74.80
4677;DHT22;2352;48.180;11.478;2022-07-23T19:44:51;26.40;75.60
4677;DHT22;2352;48.180;11.478;2022-07-23T19:47:54;26.40;75.60
4677;DHT22;2352;48.180;11.478;2022-07-23T19:50:57;26.40;75.70